sensor_id;sensor_type;location;lat;lon;timestamp;P1;durP1;ratioP1;P2;durP2;ratioP2
46675;SDS011;32412;51.478;5.694;2024-01-11T00:00:44;39.60;;;15.32;;
46675;SDS011;32412;51.478;5.694;2024-01-11T00:03:10;41.35;;;15.45;;
46675;SDS011;32412;51.478;5.694;2024-01-11T00:05:36;36.03;;;14.65;;
46675;SDS011;32412;51.478;5.694;2024-01-11T00:08:02;37.88;;;14.95;;
46675;SDS011;32412;51.478;5.694;2024-01-11T00:10:28;36.55;;;15.23;;
46675;SDS011;32412;51.478;5.694;2024-01-11T00:12:53;37.50;;;14.57;;
46675;SDS011;32412;51.478;5.694;2024-01-11T00:15:19;37.42;;;15.23;;
46675;SDS011;32412;51.478;5.694;2024-01-11T00:17:45;42.10;;;15.27;;
46675;SDS011;32412;51.478;5.694;2024-01-11T00:20:10;34.92;;;15.07;;
46675;SDS011;32412;51.478;5.694;2024-01-11T00:22:36;30.38;;;14.20;;
46675;SDS011;32412;51.478;5.694;2024-01-11T00:25:02;41.90;;;15.02;;
46675;SDS011;32412;51.478;5.694;2024-01-11T00:27:29;33.55;;;13.50;;
46675;SDS011;32412;51.478;5.694;2024-01-11T00:29:55;32.35;;;13.95;;
46675;SDS011;32412;51.478;5.694;2024-01-11T00:32:21;35.70;;;15.45;;
46675;SDS011;32412;51.478;5.694;2024-01-11T00:34:47;38.83;;;15.60;;
46675;SDS011;32412;51.478;5.694;2024-01-11T00:37:13;37.28;;;15.65;;
46675;SDS011;32412;51.478;5.694;2024-01-11T00:39:38;38.58;;;15.57;;
46675;SDS011;32412;51.478;5.694;2024-01-11T00:42:04;34.92;;;14.60;;
46675;SDS011;32412;51.478;5.694;2024-01-11T00:44:30;38.75;;;14.50;;
46675;SDS011;32412;51.478;5.694;2024-01-11T00:46:56;34.63;;;14.63;;
46675;SDS011;32412;51.478;5.694;2024-01-11T00:49:22;41.88;;;15.65;;
46675;SDS011;32412;51.478;5.694;2024-01-11T00:51:47;40.05;;;15.68;;
46675;SDS011;32412;51.478;5.694;2024-01-11T00:54:13;38.88;;;15.68;;
46675;SDS011;32412;51.478;5.694;2024-01-11T00:56:39;37.92;;;14.98;;
46675;SDS011;32412;51.478;5.694;2024-01-11T00:59:05;36.67;;;14.73;;
46675;SDS011;32412;51.478;5.694;2024-01-11T01:01:31;40.38;;;15.77;;
46675;SDS011;32412;51.478;5.694;2024-01-11T01:03:56;38.20;;;16.17;;
46675;SDS011;32412;51.478;5.694;2024-01-11T01:06:23;40.20;;;14.90;;
46675;SDS011;32412;51.478;5.694;2024-01-11T01:08:49;36.17;;;15.02;;
46675;SDS011;32412;51.478;5.694;2024-01-11T01:11:14;37.15;;;15.93;;
46675;SDS011;32412;51.478;5.694;2024-01-11T01:13:40;35.58;;;15.18;;
46675;SDS011;32412;51.478;5.694;2024-01-11T01:16:06;42.95;;;15.88;;
46675;SDS011;32412;51.478;5.694;2024-01-11T01:18:31;39.83;;;15.73;;
46675;SDS011;32412;51.478;5.694;2024-01-11T01:20:57;41.95;;;15.80;;
46675;SDS011;32412;51.478;5.694;2024-01-11T01:23:23;39.58;;;15.23;;
46675;SDS011;32412;51.478;5.694;2024-01-11T01:25:49;38.00;;;15.15;;
46675;SDS011;32412;51.478;5.694;2024-01-11T01:28:14;38.53;;;15.40;;
46675;SDS011;32412;51.478;5.694;2024-01-11T01:30:40;41.28;;;15.57;;
46675;SDS011;32412;51.478;5.694;2024-01-11T01:33:06;36.95;;;15.57;;
46675;SDS011;32412;51.478;5.694;2024-01-11T01:35:32;43.00;;;15.43;;
46675;SDS011;32412;51.478;5.694;2024-01-11T01:37:59;35.22;;;15.18;;
46675;SDS011;32412;51.478;5.694;2024-01-11T01:40:25;39.22;;;15.52;;
46675;SDS011;32412;51.478;5.694;2024-01-11T01:42:57;35.10;;;15.35;;
46675;SDS011;32412;51.478;5.694;2024-01-11T01:45:24;34.55;;;14.80;;
46675;SDS011;32412;51.478;5.694;2024-01-11T01:47:50;36.08;;;15.52;;
46675;SDS011;32412;51.478;5.694;2024-01-11T01:50:16;39.45;;;14.88;;
46675;SDS011;32412;51.478;5.694;2024-01-11T01:52:43;38.03;;;15.38;;
46675;SDS011;32412;51.478;5.694;2024-01-11T01:55:10;39.35;;;14.93;;
46675;SDS011;32412;51.478;5.694;2024-01-11T01:57:37;40.38;;;17.08;;
46675;SDS011;32412;51.478;5.694;2024-01-11T02:00:04;38.75;;;15.60;;
46675;SDS011;32412;51.478;5.694;2024-01-11T02:02:30;36.20;;;15.48;;
46675;SDS011;32412;51.478;5.694;2024-01-11T02:04:59;33.05;;;15.52;;
46675;SDS011;32412;51.478;5.694;2024-01-11T02:07:25;40.50;;;15.65;;
46675;SDS011;32412;51.478;5.694;2024-01-11T02:09:51;42.58;;;16.00;;
46675;SDS011;32412;51.478;5.694;2024-01-11T02:12:17;42.47;;;16.13;;
46675;SDS011;32412;51.478;5.694;2024-01-11T02:14:43;43.35;;;16.20;;
46675;SDS011;32412;51.478;5.694;2024-01-11T02:17:09;41.08;;;15.75;;
46675;SDS011;32412;51.478;5.694;2024-01-11T02:19:35;40.83;;;15.35;;
46675;SDS011;32412;51.478;5.694;2024-01-11T02:22:02;42.15;;;16.77;;
46675;SDS011;32412;51.478;5.694;2024-01-11T02:24:35;44.88;;;16.88;;
46675;SDS011;32412;51.478;5.694;2024-01-11T02:27:02;46.85;;;17.00;;
46675;SDS011;32412;51.478;5.694;2024-01-11T02:29:29;38.72;;;15.50;;
46675;SDS011;32412;51.478;5.694;2024-01-11T02:31:56;42.50;;;16.40;;
46675;SDS011;32412;51.478;5.694;2024-01-11T02:34:23;41.72;;;15.05;;
46675;SDS011;32412;51.478;5.694;2024-01-11T02:36:49;40.05;;;16.13;;
46675;SDS011;32412;51.478;5.694;2024-01-11T02:39:16;37.17;;;15.68;;
46675;SDS011;32412;51.478;5.694;2024-01-11T02:41:43;37.08;;;15.25;;
46675;SDS011;32412;51.478;5.694;2024-01-11T02:44:09;39.22;;;15.88;;
46675;SDS011;32412;51.478;5.694;2024-01-11T02:46:35;43.67;;;16.45;;
46675;SDS011;32412;51.478;5.694;2024-01-11T02:49:01;43.25;;;16.73;;
46675;SDS011;32412;51.478;5.694;2024-01-11T02:51:27;45.63;;;17.08;;
46675;SDS011;32412;51.478;5.694;2024-01-11T02:53:52;35.83;;;16.38;;
46675;SDS011;32412;51.478;5.694;2024-01-11T02:56:18;40.33;;;16.60;;
46675;SDS011;32412;51.478;5.694;2024-01-11T02:58:44;40.13;;;16.50;;
46675;SDS011;32412;51.478;5.694;2024-01-11T03:01:09;42.95;;;16.48;;
46675;SDS011;32412;51.478;5.694;2024-01-11T03:03:35;42.40;;;16.20;;
46675;SDS011;32412;51.478;5.694;2024-01-11T03:06:01;39.72;;;17.05;;
46675;SDS011;32412;51.478;5.694;2024-01-11T03:08:28;41.60;;;16.08;;
46675;SDS011;32412;51.478;5.694;2024-01-11T03:10:54;40.13;;;15.63;;
46675;SDS011;32412;51.478;5.694;2024-01-11T03:13:19;45.08;;;16.83;;
46675;SDS011;32412;51.478;5.694;2024-01-11T03:15:45;39.45;;;15.25;;
46675;SDS011;32412;51.478;5.694;2024-01-11T03:18:11;50.97;;;16.45;;
46675;SDS011;32412;51.478;5.694;2024-01-11T03:20:37;40.47;;;17.33;;
46675;SDS011;32412;51.478;5.694;2024-01-11T03:23:03;36.83;;;15.98;;
46675;SDS011;32412;51.478;5.694;2024-01-11T03:25:31;45.08;;;14.80;;
46675;SDS011;32412;51.478;5.694;2024-01-11T03:27:57;45.55;;;16.08;;
46675;SDS011;32412;51.478;5.694;2024-01-11T03:30:26;49.63;;;16.58;;
46675;SDS011;32412;51.478;5.694;2024-01-11T03:32:52;43.42;;;16.77;;
46675;SDS011;32412;51.478;5.694;2024-01-11T03:35:18;38.33;;;15.95;;
46675;SDS011;32412;51.478;5.694;2024-01-11T03:37:44;50.97;;;16.23;;
46675;SDS011;32412;51.478;5.694;2024-01-11T03:40:10;45.53;;;17.02;;
46675;SDS011;32412;51.478;5.694;2024-01-11T03:42:36;35.47;;;15.35;;
46675;SDS011;32412;51.478;5.694;2024-01-11T03:45:01;41.72;;;16.85;;
46675;SDS011;32412;51.478;5.694;2024-01-11T03:47:28;40.67;;;15.75;;
46675;SDS011;32412;51.478;5.694;2024-01-11T03:49:54;40.70;;;16.23;;
46675;SDS011;32412;51.478;5.694;2024-01-11T03:52:19;49.15;;;17.23;;
46675;SDS011;32412;51.478;5.694;2024-01-11T03:54:45;39.50;;;15.82;;
46675;SDS011;32412;51.478;5.694;2024-01-11T03:57:11;44.63;;;16.08;;
46675;SDS011;32412;51.478;5.694;2024-01-11T03:59:36;42.83;;;17.27;;
46675;SDS011;32412;51.478;5.694;2024-01-11T04:02:02;46.40;;;17.23;;
46675;SDS011;32412;51.478;5.694;2024-01-11T04:04:28;42.08;;;16.80;;
46675;SDS011;32412;51.478;5.694;2024-01-11T04:06:53;41.33;;;16.90;;
46675;SDS011;32412;51.478;5.694;2024-01-11T04:09:19;39.58;;;15.90;;
46675;SDS011;32412;51.478;5.694;2024-01-11T04:11:45;40.80;;;16.17;;
46675;SDS011;32412;51.478;5.694;2024-01-11T04:14:11;42.78;;;16.60;;
46675;SDS011;32412;51.478;5.694;2024-01-11T04:16:43;41.25;;;17.05;;
46675;SDS011;32412;51.478;5.694;2024-01-11T04:19:09;44.72;;;17.40;;
46675;SDS011;32412;51.478;5.694;2024-01-11T04:21:35;42.45;;;16.55;;
46675;SDS011;32412;51.478;5.694;2024-01-11T04:24:03;45.25;;;16.50;;
46675;SDS011;32412;51.478;5.694;2024-01-11T04:26:30;41.92;;;16.75;;
46675;SDS011;32412;51.478;5.694;2024-01-11T04:28:56;50.28;;;16.23;;
46675;SDS011;32412;51.478;5.694;2024-01-11T04:31:24;42.50;;;16.77;;
46675;SDS011;32412;51.478;5.694;2024-01-11T04:33:50;46.47;;;15.50;;
46675;SDS011;32412;51.478;5.694;2024-01-11T04:36:16;44.38;;;15.85;;
46675;SDS011;32412;51.478;5.694;2024-01-11T04:38:42;46.35;;;16.17;;
46675;SDS011;32412;51.478;5.694;2024-01-11T04:41:08;45.75;;;16.13;;
46675;SDS011;32412;51.478;5.694;2024-01-11T04:43:41;42.05;;;16.50;;
46675;SDS011;32412;51.478;5.694;2024-01-11T04:46:18;46.45;;;16.63;;
46675;SDS011;32412;51.478;5.694;2024-01-11T04:48:48;41.55;;;16.00;;
46675;SDS011;32412;51.478;5.694;2024-01-11T04:51:19;38.30;;;15.20;;
46675;SDS011;32412;51.478;5.694;2024-01-11T04:53:46;43.75;;;16.20;;
46675;SDS011;32412;51.478;5.694;2024-01-11T04:56:13;45.00;;;16.80;;
46675;SDS011;32412;51.478;5.694;2024-01-11T04:58:40;38.95;;;15.15;;
46675;SDS011;32412;51.478;5.694;2024-01-11T05:01:11;47.92;;;16.83;;
46675;SDS011;32412;51.478;5.694;2024-01-11T05:03:38;41.90;;;16.98;;
46675;SDS011;32412;51.478;5.694;2024-01-11T05:06:04;38.97;;;15.95;;
46675;SDS011;32412;51.478;5.694;2024-01-11T05:08:29;42.22;;;16.23;;
46675;SDS011;32412;51.478;5.694;2024-01-11T05:10:55;41.65;;;16.63;;
46675;SDS011;32412;51.478;5.694;2024-01-11T05:13:21;48.30;;;16.67;;
46675;SDS011;32412;51.478;5.694;2024-01-11T05:15:47;40.85;;;15.85;;
46675;SDS011;32412;51.478;5.694;2024-01-11T05:18:13;41.47;;;15.52;;
46675;SDS011;32412;51.478;5.694;2024-01-11T05:20:39;34.28;;;15.05;;
46675;SDS011;32412;51.478;5.694;2024-01-11T05:23:05;39.30;;;15.70;;
46675;SDS011;32412;51.478;5.694;2024-01-11T05:25:34;35.38;;;15.02;;
46675;SDS011;32412;51.478;5.694;2024-01-11T05:28:00;41.42;;;15.13;;
46675;SDS011;32412;51.478;5.694;2024-01-11T05:30:26;35.78;;;15.23;;
46675;SDS011;32412;51.478;5.694;2024-01-11T05:32:52;40.58;;;15.10;;
46675;SDS011;32412;51.478;5.694;2024-01-11T05:35:18;45.45;;;16.17;;
46675;SDS011;32412;51.478;5.694;2024-01-11T05:37:44;40.42;;;14.75;;
46675;SDS011;32412;51.478;5.694;2024-01-11T05:40:10;44.50;;;15.48;;
46675;SDS011;32412;51.478;5.694;2024-01-11T05:42:36;39.42;;;14.38;;
46675;SDS011;32412;51.478;5.694;2024-01-11T05:45:04;33.10;;;14.27;;
46675;SDS011;32412;51.478;5.694;2024-01-11T05:47:30;39.33;;;14.48;;
46675;SDS011;32412;51.478;5.694;2024-01-11T05:49:56;32.63;;;14.20;;
46675;SDS011;32412;51.478;5.694;2024-01-11T05:52:22;40.35;;;15.50;;
46675;SDS011;32412;51.478;5.694;2024-01-11T05:54:47;40.47;;;15.38;;
46675;SDS011;32412;51.478;5.694;2024-01-11T05:57:13;37.38;;;13.80;;
46675;SDS011;32412;51.478;5.694;2024-01-11T05:59:45;37.85;;;14.77;;
46675;SDS011;32412;51.478;5.694;2024-01-11T06:02:11;39.75;;;14.85;;
46675;SDS011;32412;51.478;5.694;2024-01-11T06:04:38;34.67;;;15.10;;
46675;SDS011;32412;51.478;5.694;2024-01-11T06:07:04;39.63;;;15.18;;
46675;SDS011;32412;51.478;5.694;2024-01-11T06:09:30;38.13;;;14.70;;
46675;SDS011;32412;51.478;5.694;2024-01-11T06:11:55;39.40;;;14.88;;
46675;SDS011;32412;51.478;5.694;2024-01-11T06:14:21;37.22;;;15.00;;
46675;SDS011;32412;51.478;5.694;2024-01-11T06:16:47;36.03;;;14.23;;
46675;SDS011;32412;51.478;5.694;2024-01-11T06:19:12;34.05;;;14.15;;
46675;SDS011;32412;51.478;5.694;2024-01-11T06:21:38;34.38;;;14.30;;
46675;SDS011;32412;51.478;5.694;2024-01-11T06:24:04;37.30;;;15.35;;
46675;SDS011;32412;51.478;5.694;2024-01-11T06:26:30;39.72;;;13.70;;
46675;SDS011;32412;51.478;5.694;2024-01-11T06:28:55;35.60;;;14.45;;
46675;SDS011;32412;51.478;5.694;2024-01-11T06:31:21;38.30;;;15.52;;
46675;SDS011;32412;51.478;5.694;2024-01-11T06:33:47;37.28;;;14.98;;
46675;SDS011;32412;51.478;5.694;2024-01-11T06:36:12;40.85;;;15.50;;
46675;SDS011;32412;51.478;5.694;2024-01-11T06:38:38;41.33;;;15.43;;
46675;SDS011;32412;51.478;5.694;2024-01-11T06:41:04;39.65;;;15.10;;
46675;SDS011;32412;51.478;5.694;2024-01-11T06:43:29;37.67;;;13.80;;
46675;SDS011;32412;51.478;5.694;2024-01-11T06:45:55;42.83;;;16.35;;
46675;SDS011;32412;51.478;5.694;2024-01-11T06:48:21;38.30;;;15.23;;
46675;SDS011;32412;51.478;5.694;2024-01-11T06:50:46;41.08;;;15.85;;
46675;SDS011;32412;51.478;5.694;2024-01-11T06:53:12;41.53;;;15.40;;
46675;SDS011;32412;51.478;5.694;2024-01-11T06:55:38;34.72;;;14.55;;
46675;SDS011;32412;51.478;5.694;2024-01-11T06:58:06;38.85;;;15.13;;
46675;SDS011;32412;51.478;5.694;2024-01-11T07:00:31;43.05;;;14.85;;
46675;SDS011;32412;51.478;5.694;2024-01-11T07:02:57;37.17;;;14.90;;
46675;SDS011;32412;51.478;5.694;2024-01-11T07:05:22;38.42;;;14.35;;
46675;SDS011;32412;51.478;5.694;2024-01-11T07:07:48;32.85;;;14.18;;
46675;SDS011;32412;51.478;5.694;2024-01-11T07:10:14;39.90;;;14.20;;
46675;SDS011;32412;51.478;5.694;2024-01-11T07:12:41;37.33;;;14.25;;
46675;SDS011;32412;51.478;5.694;2024-01-11T07:15:08;48.35;;;13.95;;
46675;SDS011;32412;51.478;5.694;2024-01-11T07:17:34;33.67;;;13.77;;
46675;SDS011;32412;51.478;5.694;2024-01-11T07:19:59;36.97;;;14.35;;
46675;SDS011;32412;51.478;5.694;2024-01-11T07:22:25;36.90;;;14.32;;
46675;SDS011;32412;51.478;5.694;2024-01-11T07:24:51;37.92;;;14.60;;
46675;SDS011;32412;51.478;5.694;2024-01-11T07:27:17;35.72;;;14.15;;
46675;SDS011;32412;51.478;5.694;2024-01-11T07:29:43;37.53;;;14.43;;
46675;SDS011;32412;51.478;5.694;2024-01-11T07:32:09;39.38;;;15.18;;
46675;SDS011;32412;51.478;5.694;2024-01-11T07:34:35;34.30;;;13.15;;
46675;SDS011;32412;51.478;5.694;2024-01-11T07:37:01;35.20;;;14.00;;
46675;SDS011;32412;51.478;5.694;2024-01-11T07:39:32;38.38;;;14.48;;
46675;SDS011;32412;51.478;5.694;2024-01-11T07:42:00;33.58;;;13.23;;
46675;SDS011;32412;51.478;5.694;2024-01-11T07:44:28;34.72;;;13.63;;
46675;SDS011;32412;51.478;5.694;2024-01-11T07:46:53;38.97;;;14.55;;
46675;SDS011;32412;51.478;5.694;2024-01-11T07:49:20;34.55;;;13.93;;
46675;SDS011;32412;51.478;5.694;2024-01-11T07:51:45;35.28;;;14.35;;
46675;SDS011;32412;51.478;5.694;2024-01-11T07:54:11;43.10;;;14.13;;
46675;SDS011;32412;51.478;5.694;2024-01-11T07:56:37;37.95;;;13.77;;
46675;SDS011;32412;51.478;5.694;2024-01-11T07:59:03;32.28;;;13.65;;
46675;SDS011;32412;51.478;5.694;2024-01-11T08:01:29;36.03;;;14.40;;
46675;SDS011;32412;51.478;5.694;2024-01-11T08:03:55;34.78;;;14.25;;
46675;SDS011;32412;51.478;5.694;2024-01-11T08:06:20;39.20;;;14.93;;
46675;SDS011;32412;51.478;5.694;2024-01-11T08:08:46;30.13;;;14.50;;
46675;SDS011;32412;51.478;5.694;2024-01-11T08:11:16;35.53;;;14.48;;
46675;SDS011;32412;51.478;5.694;2024-01-11T08:13:43;33.63;;;13.65;;
46675;SDS011;32412;51.478;5.694;2024-01-11T08:16:14;36.40;;;14.07;;
46675;SDS011;32412;51.478;5.694;2024-01-11T08:18:43;34.40;;;14.45;;
46675;SDS011;32412;51.478;5.694;2024-01-11T08:21:10;34.58;;;13.40;;
46675;SDS011;32412;51.478;5.694;2024-01-11T08:23:39;36.97;;;15.52;;
46675;SDS011;32412;51.478;5.694;2024-01-11T08:26:11;32.35;;;13.98;;
46675;SDS011;32412;51.478;5.694;2024-01-11T08:28:37;32.20;;;13.60;;
46675;SDS011;32412;51.478;5.694;2024-01-11T08:31:03;38.42;;;13.80;;
46675;SDS011;32412;51.478;5.694;2024-01-11T08:33:30;33.97;;;14.00;;
46675;SDS011;32412;51.478;5.694;2024-01-11T08:35:56;33.67;;;13.45;;
46675;SDS011;32412;51.478;5.694;2024-01-11T08:38:21;36.55;;;13.80;;
46675;SDS011;32412;51.478;5.694;2024-01-11T08:40:47;31.50;;;13.48;;
46675;SDS011;32412;51.478;5.694;2024-01-11T08:43:13;35.47;;;13.93;;
46675;SDS011;32412;51.478;5.694;2024-01-11T08:45:39;34.53;;;14.45;;
46675;SDS011;32412;51.478;5.694;2024-01-11T08:48:04;33.50;;;14.57;;
46675;SDS011;32412;51.478;5.694;2024-01-11T08:50:30;41.08;;;14.77;;
46675;SDS011;32412;51.478;5.694;2024-01-11T08:52:57;36.08;;;14.38;;
46675;SDS011;32412;51.478;5.694;2024-01-11T08:55:23;39.97;;;15.40;;
46675;SDS011;32412;51.478;5.694;2024-01-11T08:57:49;35.72;;;15.10;;
46675;SDS011;32412;51.478;5.694;2024-01-11T09:00:14;35.22;;;14.90;;
46675;SDS011;32412;51.478;5.694;2024-01-11T09:02:43;36.95;;;15.10;;
46675;SDS011;32412;51.478;5.694;2024-01-11T09:05:10;32.40;;;14.27;;
46675;SDS011;32412;51.478;5.694;2024-01-11T09:07:36;33.03;;;14.45;;
46675;SDS011;32412;51.478;5.694;2024-01-11T09:10:02;33.97;;;14.70;;
46675;SDS011;32412;51.478;5.694;2024-01-11T09:12:28;32.47;;;14.73;;
46675;SDS011;32412;51.478;5.694;2024-01-11T09:14:54;36.28;;;14.82;;
46675;SDS011;32412;51.478;5.694;2024-01-11T09:17:19;32.03;;;14.80;;
46675;SDS011;32412;51.478;5.694;2024-01-11T09:19:46;39.92;;;15.80;;
46675;SDS011;32412;51.478;5.694;2024-01-11T09:22:12;41.38;;;15.82;;
46675;SDS011;32412;51.478;5.694;2024-01-11T09:24:37;32.22;;;14.95;;
46675;SDS011;32412;51.478;5.694;2024-01-11T09:27:03;37.67;;;14.80;;
46675;SDS011;32412;51.478;5.694;2024-01-11T09:29:29;38.65;;;14.48;;
46675;SDS011;32412;51.478;5.694;2024-01-11T09:31:55;30.65;;;14.02;;
46675;SDS011;32412;51.478;5.694;2024-01-11T09:34:20;35.15;;;15.55;;
46675;SDS011;32412;51.478;5.694;2024-01-11T09:36:46;36.05;;;15.48;;
46675;SDS011;32412;51.478;5.694;2024-01-11T09:39:12;35.13;;;15.45;;
46675;SDS011;32412;51.478;5.694;2024-01-11T09:41:41;36.58;;;14.63;;
46675;SDS011;32412;51.478;5.694;2024-01-11T09:44:13;39.85;;;14.63;;
46675;SDS011;32412;51.478;5.694;2024-01-11T09:46:39;32.35;;;14.63;;
46675;SDS011;32412;51.478;5.694;2024-01-11T09:49:04;34.25;;;13.02;;
46675;SDS011;32412;51.478;5.694;2024-01-11T09:51:32;33.17;;;13.88;;
46675;SDS011;32412;51.478;5.694;2024-01-11T09:54:03;29.88;;;12.75;;
46675;SDS011;32412;51.478;5.694;2024-01-11T09:56:28;36.30;;;14.63;;
46675;SDS011;32412;51.478;5.694;2024-01-11T09:58:54;37.08;;;14.63;;
46675;SDS011;32412;51.478;5.694;2024-01-11T10:01:20;27.38;;;13.00;;
46675;SDS011;32412;51.478;5.694;2024-01-11T10:03:47;26.65;;;12.88;;
46675;SDS011;32412;51.478;5.694;2024-01-11T10:09:34;26.17;;;12.90;;
46675;SDS011;32412;51.478;5.694;2024-01-11T10:12:01;32.00;;;11.85;;
46675;SDS011;32412;51.478;5.694;2024-01-11T10:14:28;23.27;;;11.90;;
46675;SDS011;32412;51.478;5.694;2024-01-11T10:16:55;28.92;;;12.80;;
46675;SDS011;32412;51.478;5.694;2024-01-11T10:19:21;30.30;;;13.85;;
46675;SDS011;32412;51.478;5.694;2024-01-11T10:21:46;26.58;;;12.88;;
46675;SDS011;32412;51.478;5.694;2024-01-11T10:24:22;27.50;;;13.43;;
46675;SDS011;32412;51.478;5.694;2024-01-11T10:26:51;26.98;;;12.95;;
46675;SDS011;32412;51.478;5.694;2024-01-11T10:29:20;28.75;;;12.70;;
46675;SDS011;32412;51.478;5.694;2024-01-11T10:31:46;29.17;;;13.43;;
46675;SDS011;32412;51.478;5.694;2024-01-11T10:34:11;24.98;;;12.50;;
46675;SDS011;32412;51.478;5.694;2024-01-11T10:36:37;29.08;;;13.15;;
46675;SDS011;32412;51.478;5.694;2024-01-11T10:39:03;29.65;;;12.68;;
46675;SDS011;32412;51.478;5.694;2024-01-11T10:41:38;28.88;;;13.65;;
46675;SDS011;32412;51.478;5.694;2024-01-11T10:44:12;28.58;;;12.93;;
46675;SDS011;32412;51.478;5.694;2024-01-11T10:46:47;30.85;;;13.95;;
46675;SDS011;32412;51.478;5.694;2024-01-11T10:49:17;26.70;;;12.02;;
46675;SDS011;32412;51.478;5.694;2024-01-11T10:52:17;26.60;;;12.40;;
46675;SDS011;32412;51.478;5.694;2024-01-11T10:54:45;27.00;;;12.38;;
46675;SDS011;32412;51.478;5.694;2024-01-11T10:57:16;26.48;;;13.10;;
46675;SDS011;32412;51.478;5.694;2024-01-11T10:59:42;28.27;;;12.80;;
46675;SDS011;32412;51.478;5.694;2024-01-11T11:02:09;26.13;;;12.30;;
46675;SDS011;32412;51.478;5.694;2024-01-11T11:04:38;27.98;;;13.00;;
46675;SDS011;32412;51.478;5.694;2024-01-11T11:07:05;29.05;;;12.68;;
46675;SDS011;32412;51.478;5.694;2024-01-11T11:09:37;30.95;;;13.18;;
46675;SDS011;32412;51.478;5.694;2024-01-11T11:12:05;24.02;;;12.18;;
46675;SDS011;32412;51.478;5.694;2024-01-11T11:14:31;25.27;;;13.05;;
46675;SDS011;32412;51.478;5.694;2024-01-11T11:17:00;24.63;;;12.05;;
46675;SDS011;32412;51.478;5.694;2024-01-11T11:19:25;28.05;;;12.68;;
46675;SDS011;32412;51.478;5.694;2024-01-11T11:21:52;27.75;;;12.98;;
46675;SDS011;32412;51.478;5.694;2024-01-11T11:24:19;29.65;;;13.23;;
46675;SDS011;32412;51.478;5.694;2024-01-11T11:26:45;24.65;;;12.95;;
46675;SDS011;32412;51.478;5.694;2024-01-11T11:29:13;30.17;;;12.63;;
46675;SDS011;32412;51.478;5.694;2024-01-11T11:31:44;27.83;;;12.63;;
46675;SDS011;32412;51.478;5.694;2024-01-11T11:34:12;28.75;;;13.48;;
46675;SDS011;32412;51.478;5.694;2024-01-11T11:36:39;29.48;;;12.68;;
46675;SDS011;32412;51.478;5.694;2024-01-11T11:39:13;23.88;;;12.43;;
46675;SDS011;32412;51.478;5.694;2024-01-11T11:41:39;25.90;;;13.38;;
46675;SDS011;32412;51.478;5.694;2024-01-11T11:44:08;27.83;;;13.18;;
46675;SDS011;32412;51.478;5.694;2024-01-11T11:46:39;27.13;;;14.10;;
46675;SDS011;32412;51.478;5.694;2024-01-11T11:49:05;24.80;;;12.75;;
46675;SDS011;32412;51.478;5.694;2024-01-11T11:51:32;27.38;;;13.63;;
46675;SDS011;32412;51.478;5.694;2024-01-11T11:53:58;28.25;;;14.20;;
46675;SDS011;32412;51.478;5.694;2024-01-11T11:56:24;26.80;;;13.43;;
46675;SDS011;32412;51.478;5.694;2024-01-11T11:58:50;25.42;;;12.95;;
46675;SDS011;32412;51.478;5.694;2024-01-11T12:01:18;27.08;;;13.65;;
46675;SDS011;32412;51.478;5.694;2024-01-11T12:03:45;27.10;;;13.38;;
46675;SDS011;32412;51.478;5.694;2024-01-11T12:06:14;27.08;;;13.98;;
46675;SDS011;32412;51.478;5.694;2024-01-11T12:08:42;28.67;;;13.95;;
46675;SDS011;32412;51.478;5.694;2024-01-11T12:11:08;29.15;;;14.38;;
46675;SDS011;32412;51.478;5.694;2024-01-11T12:13:35;29.65;;;15.18;;
46675;SDS011;32412;51.478;5.694;2024-01-11T12:16:01;34.83;;;15.30;;
46675;SDS011;32412;51.478;5.694;2024-01-11T12:18:26;30.73;;;15.90;;
46675;SDS011;32412;51.478;5.694;2024-01-11T12:20:52;32.25;;;15.90;;
46675;SDS011;32412;51.478;5.694;2024-01-11T12:23:18;32.20;;;15.48;;
46675;SDS011;32412;51.478;5.694;2024-01-11T12:25:44;31.08;;;15.48;;
46675;SDS011;32412;51.478;5.694;2024-01-11T12:28:10;29.75;;;15.98;;
46675;SDS011;32412;51.478;5.694;2024-01-11T12:30:36;32.45;;;15.82;;
46675;SDS011;32412;51.478;5.694;2024-01-11T12:33:03;27.30;;;14.45;;
46675;SDS011;32412;51.478;5.694;2024-01-11T12:35:30;28.45;;;14.70;;
46675;SDS011;32412;51.478;5.694;2024-01-11T12:38:03;31.63;;;15.05;;
46675;SDS011;32412;51.478;5.694;2024-01-11T12:43:00;29.35;;;14.23;;
46675;SDS011;32412;51.478;5.694;2024-01-11T12:45:26;31.88;;;15.55;;
46675;SDS011;32412;51.478;5.694;2024-01-11T12:47:52;34.72;;;15.15;;
46675;SDS011;32412;51.478;5.694;2024-01-11T12:50:19;32.00;;;16.25;;
46675;SDS011;32412;51.478;5.694;2024-01-11T12:52:45;32.97;;;15.48;;
46675;SDS011;32412;51.478;5.694;2024-01-11T12:55:18;34.25;;;15.27;;
46675;SDS011;32412;51.478;5.694;2024-01-11T12:57:44;28.75;;;15.23;;
46675;SDS011;32412;51.478;5.694;2024-01-11T13:00:13;28.70;;;14.65;;
46675;SDS011;32412;51.478;5.694;2024-01-11T13:02:41;29.42;;;15.55;;
46675;SDS011;32412;51.478;5.694;2024-01-11T13:05:09;28.75;;;14.77;;
46675;SDS011;32412;51.478;5.694;2024-01-11T13:07:36;30.65;;;14.85;;
46675;SDS011;32412;51.478;5.694;2024-01-11T13:10:02;33.38;;;15.35;;
46675;SDS011;32412;51.478;5.694;2024-01-11T13:12:29;32.15;;;15.32;;
46675;SDS011;32412;51.478;5.694;2024-01-11T13:14:55;26.73;;;13.88;;
46675;SDS011;32412;51.478;5.694;2024-01-11T13:17:21;30.90;;;13.80;;
46675;SDS011;32412;51.478;5.694;2024-01-11T13:19:46;28.23;;;13.73;;
46675;SDS011;32412;51.478;5.694;2024-01-11T13:22:12;34.92;;;15.23;;
46675;SDS011;32412;51.478;5.694;2024-01-11T13:24:38;30.88;;;14.73;;
46675;SDS011;32412;51.478;5.694;2024-01-11T13:27:03;29.50;;;13.27;;
46675;SDS011;32412;51.478;5.694;2024-01-11T13:29:29;28.77;;;13.13;;
46675;SDS011;32412;51.478;5.694;2024-01-11T13:31:55;26.35;;;13.73;;
46675;SDS011;32412;51.478;5.694;2024-01-11T13:34:21;29.15;;;14.02;;
46675;SDS011;32412;51.478;5.694;2024-01-11T13:36:46;30.60;;;13.93;;
46675;SDS011;32412;51.478;5.694;2024-01-11T13:39:12;32.08;;;15.00;;
46675;SDS011;32412;51.478;5.694;2024-01-11T13:41:41;31.92;;;15.20;;
46675;SDS011;32412;51.478;5.694;2024-01-11T13:44:07;30.38;;;14.48;;
46675;SDS011;32412;51.478;5.694;2024-01-11T13:46:34;25.75;;;13.55;;
46675;SDS011;32412;51.478;5.694;2024-01-11T13:49:00;28.33;;;13.43;;
46675;SDS011;32412;51.478;5.694;2024-01-11T13:51:26;26.23;;;13.18;;
46675;SDS011;32412;51.478;5.694;2024-01-11T13:53:51;26.83;;;12.75;;
46675;SDS011;32412;51.478;5.694;2024-01-11T13:56:17;22.42;;;11.52;;
46675;SDS011;32412;51.478;5.694;2024-01-11T13:58:42;23.52;;;11.32;;
46675;SDS011;32412;51.478;5.694;2024-01-11T14:01:09;17.50;;;7.78;;
46675;SDS011;32412;51.478;5.694;2024-01-11T14:03:36;14.65;;;6.75;;
46675;SDS011;32412;51.478;5.694;2024-01-11T14:06:02;13.63;;;6.07;;
46675;SDS011;32412;51.478;5.694;2024-01-11T14:08:28;11.63;;;5.40;;
46675;SDS011;32412;51.478;5.694;2024-01-11T14:10:53;11.88;;;5.03;;
46675;SDS011;32412;51.478;5.694;2024-01-11T14:13:19;11.73;;;4.78;;
46675;SDS011;32412;51.478;5.694;2024-01-11T14:15:45;15.85;;;7.05;;
46675;SDS011;32412;51.478;5.694;2024-01-11T14:18:13;16.63;;;6.28;;
46675;SDS011;32412;51.478;5.694;2024-01-11T14:20:38;18.40;;;6.20;;
46675;SDS011;32412;51.478;5.694;2024-01-11T14:23:04;16.58;;;5.90;;